sensor_id;sensor_type;location;lat;lon;timestamp;P1;durP1;ratioP1;P2;durP2;ratioP2
34060;SDS011;20336;-33.424;-70.638;2023-09-12T00:00:08;8.50;;;1.90;;
34060;SDS011;20336;-33.424;-70.638;2023-09-12T00:02:35;8.90;;;1.85;;
34060;SDS011;20336;-33.424;-70.638;2023-09-12T00:05:02;10.20;;;1.90;;
34060;SDS011;20336;-33.424;-70.638;2023-09-12T00:07:30;5.13;;;1.65;;
34060;SDS011;20336;-33.424;-70.638;2023-09-12T00:09:57;8.07;;;1.88;;
34060;SDS011;20336;-33.424;-70.638;2023-09-12T00:12:24;3.17;;;1.50;;
34060;SDS011;20336;-33.424;-70.638;2023-09-12T00:14:51;3.17;;;1.70;;
34060;SDS011;20336;-33.424;-70.638;2023-09-12T00:17:18;6.28;;;1.85;;
34060;SDS011;20336;-33.424;-70.638;2023-09-12T00:19:45;4.15;;;1.70;;
34060;SDS011;20336;-33.424;-70.638;2023-09-12T00:22:12;5.25;;;1.58;;
34060;SDS011;20336;-33.424;-70.638;2023-09-12T00:24:39;4.93;;;1.60;;
34060;SDS011;20336;-33.424;-70.638;2023-09-12T00:27:06;7.20;;;1.63;;
34060;SDS011;20336;-33.424;-70.638;2023-09-12T00:29:33;4.53;;;1.95;;
34060;SDS011;20336;-33.424;-70.638;2023-09-12T00:32:00;4.80;;;1.40;;
34060;SDS011;20336;-33.424;-70.638;2023-09-12T00:34:27;4.97;;;1.10;;
34060;SDS011;20336;-33.424;-70.638;2023-09-12T00:36:54;6.68;;;1.50;;
34060;SDS011;20336;-33.424;-70.638;2023-09-12T00:39:21;6.22;;;1.63;;
34060;SDS011;20336;-33.424;-70.638;2023-09-12T00:41:48;3.03;;;1.45;;
34060;SDS011;20336;-33.424;-70.638;2023-09-12T00:44:15;8.63;;;1.42;;
34060;SDS011;20336;-33.424;-70.638;2023-09-12T00:46:42;4.22;;;1.40;;
34060;SDS011;20336;-33.424;-70.638;2023-09-12T00:49:10;4.78;;;1.58;;
34060;SDS011;20336;-33.424;-70.638;2023-09-12T00:51:38;4.28;;;1.40;;
34060;SDS011;20336;-33.424;-70.638;2023-09-12T00:54:05;5.50;;;1.50;;
34060;SDS011;20336;-33.424;-70.638;2023-09-12T00:56:32;5.15;;;1.50;;
34060;SDS011;20336;-33.424;-70.638;2023-09-12T00:59:00;7.95;;;1.60;;
34060;SDS011;20336;-33.424;-70.638;2023-09-12T01:01:27;5.50;;;1.40;;
34060;SDS011;20336;-33.424;-70.638;2023-09-12T01:03:54;7.18;;;1.60;;
34060;SDS011;20336;-33.424;-70.638;2023-09-12T01:06:23;6.15;;;1.90;;
34060;SDS011;20336;-33.424;-70.638;2023-09-12T01:08:54;7.65;;;2.53;;
34060;SDS011;20336;-33.424;-70.638;2023-09-12T01:11:21;6.65;;;3.20;;
34060;SDS011;20336;-33.424;-70.638;2023-09-12T01:13:49;12.33;;;3.47;;
34060;SDS011;20336;-33.424;-70.638;2023-09-12T01:16:16;8.18;;;3.00;;
34060;SDS011;20336;-33.424;-70.638;2023-09-12T01:18:43;9.90;;;3.40;;
34060;SDS011;20336;-33.424;-70.638;2023-09-12T01:21:20;11.13;;;3.67;;
34060;SDS011;20336;-33.424;-70.638;2023-09-12T01:28:55;9.35;;;4.40;;
34060;SDS011;20336;-33.424;-70.638;2023-09-12T01:31:24;8.63;;;4.13;;
34060;SDS011;20336;-33.424;-70.638;2023-09-12T01:33:54;10.77;;;4.10;;
34060;SDS011;20336;-33.424;-70.638;2023-09-12T01:36:22;8.70;;;3.87;;
34060;SDS011;20336;-33.424;-70.638;2023-09-12T01:38:49;13.33;;;4.17;;
34060;SDS011;20336;-33.424;-70.638;2023-09-12T01:41:16;6.30;;;3.10;;
34060;SDS011;20336;-33.424;-70.638;2023-09-12T01:43:43;8.77;;;2.70;;
34060;SDS011;20336;-33.424;-70.638;2023-09-12T01:46:10;6.00;;;3.03;;
34060;SDS011;20336;-33.424;-70.638;2023-09-12T01:48:37;8.27;;;3.20;;
34060;SDS011;20336;-33.424;-70.638;2023-09-12T01:51:05;9.20;;;3.00;;
34060;SDS011;20336;-33.424;-70.638;2023-09-12T01:53:33;6.60;;;3.37;;
34060;SDS011;20336;-33.424;-70.638;2023-09-12T01:56:00;7.40;;;2.20;;
34060;SDS011;20336;-33.424;-70.638;2023-09-12T01:58:27;7.80;;;2.00;;
34060;SDS011;20336;-33.424;-70.638;2023-09-12T02:00:55;7.10;;;2.10;;
34060;SDS011;20336;-33.424;-70.638;2023-09-12T02:03:22;3.33;;;1.60;;
34060;SDS011;20336;-33.424;-70.638;2023-09-12T02:05:49;7.57;;;2.20;;
34060;SDS011;20336;-33.424;-70.638;2023-09-12T02:08:16;6.40;;;2.10;;
34060;SDS011;20336;-33.424;-70.638;2023-09-12T02:10:43;6.70;;;1.80;;
34060;SDS011;20336;-33.424;-70.638;2023-09-12T02:13:10;8.17;;;2.40;;
34060;SDS011;20336;-33.424;-70.638;2023-09-12T02:15:37;7.17;;;3.53;;
34060;SDS011;20336;-33.424;-70.638;2023-09-12T02:18:04;8.67;;;2.00;;
34060;SDS011;20336;-33.424;-70.638;2023-09-12T02:20:31;7.30;;;1.98;;
34060;SDS011;20336;-33.424;-70.638;2023-09-12T02:22:58;6.77;;;2.33;;
34060;SDS011;20336;-33.424;-70.638;2023-09-12T02:25:25;6.50;;;2.17;;
34060;SDS011;20336;-33.424;-70.638;2023-09-12T02:27:52;12.63;;;5.13;;
34060;SDS011;20336;-33.424;-70.638;2023-09-12T02:30:19;14.80;;;3.17;;
34060;SDS011;20336;-33.424;-70.638;2023-09-12T02:32:46;10.87;;;2.90;;
34060;SDS011;20336;-33.424;-70.638;2023-09-12T02:35:13;6.40;;;2.40;;
34060;SDS011;20336;-33.424;-70.638;2023-09-12T02:37:40;11.83;;;2.50;;
34060;SDS011;20336;-33.424;-70.638;2023-09-12T02:40:07;8.43;;;2.73;;
34060;SDS011;20336;-33.424;-70.638;2023-09-12T02:42:37;6.90;;;2.60;;
34060;SDS011;20336;-33.424;-70.638;2023-09-12T02:45:04;9.03;;;3.43;;
34060;SDS011;20336;-33.424;-70.638;2023-09-12T02:47:31;8.30;;;3.20;;
34060;SDS011;20336;-33.424;-70.638;2023-09-12T02:49:58;8.60;;;3.13;;
34060;SDS011;20336;-33.424;-70.638;2023-09-12T02:52:25;7.90;;;2.87;;
34060;SDS011;20336;-33.424;-70.638;2023-09-12T02:54:52;11.93;;;3.83;;
34060;SDS011;20336;-33.424;-70.638;2023-09-12T02:57:19;11.47;;;3.30;;
34060;SDS011;20336;-33.424;-70.638;2023-09-12T02:59:47;14.50;;;4.10;;
34060;SDS011;20336;-33.424;-70.638;2023-09-12T03:02:14;7.53;;;3.60;;
34060;SDS011;20336;-33.424;-70.638;2023-09-12T03:04:41;11.67;;;3.90;;
34060;SDS011;20336;-33.424;-70.638;2023-09-12T03:07:08;11.27;;;3.80;;
34060;SDS011;20336;-33.424;-70.638;2023-09-12T03:09:35;11.87;;;3.83;;
34060;SDS011;20336;-33.424;-70.638;2023-09-12T03:12:04;14.83;;;3.73;;
34060;SDS011;20336;-33.424;-70.638;2023-09-12T03:14:31;10.93;;;4.23;;
34060;SDS011;20336;-33.424;-70.638;2023-09-12T03:16:58;12.90;;;3.50;;
34060;SDS011;20336;-33.424;-70.638;2023-09-12T03:19:25;16.70;;;3.80;;
34060;SDS011;20336;-33.424;-70.638;2023-09-12T03:21:52;14.67;;;3.80;;
34060;SDS011;20336;-33.424;-70.638;2023-09-12T03:24:19;11.17;;;4.07;;
34060;SDS011;20336;-33.424;-70.638;2023-09-12T03:26:49;9.60;;;3.37;;
34060;SDS011;20336;-33.424;-70.638;2023-09-12T03:29:16;10.07;;;3.70;;
34060;SDS011;20336;-33.424;-70.638;2023-09-12T03:31:43;9.07;;;3.67;;
34060;SDS011;20336;-33.424;-70.638;2023-09-12T03:34:10;9.73;;;3.17;;
34060;SDS011;20336;-33.424;-70.638;2023-09-12T03:36:37;9.10;;;3.50;;
34060;SDS011;20336;-33.424;-70.638;2023-09-12T03:39:04;10.83;;;3.87;;
34060;SDS011;20336;-33.424;-70.638;2023-09-12T03:41:34;17.30;;;4.00;;
34060;SDS011;20336;-33.424;-70.638;2023-09-12T03:44:01;9.10;;;4.27;;
34060;SDS011;20336;-33.424;-70.638;2023-09-12T03:46:28;10.77;;;5.57;;
34060;SDS011;20336;-33.424;-70.638;2023-09-12T03:48:55;17.03;;;5.13;;
34060;SDS011;20336;-33.424;-70.638;2023-09-12T03:51:22;10.87;;;4.57;;
34060;SDS011;20336;-33.424;-70.638;2023-09-12T03:53:49;13.40;;;4.50;;
34060;SDS011;20336;-33.424;-70.638;2023-09-12T03:56:16;13.17;;;4.30;;
34060;SDS011;20336;-33.424;-70.638;2023-09-12T03:58:45;9.47;;;4.10;;
34060;SDS011;20336;-33.424;-70.638;2023-09-12T04:01:12;11.13;;;4.80;;
34060;SDS011;20336;-33.424;-70.638;2023-09-12T04:03:39;8.40;;;4.33;;
34060;SDS011;20336;-33.424;-70.638;2023-09-12T04:06:06;10.47;;;4.67;;
34060;SDS011;20336;-33.424;-70.638;2023-09-12T04:08:33;13.03;;;4.57;;
34060;SDS011;20336;-33.424;-70.638;2023-09-12T04:11:00;12.03;;;4.80;;
34060;SDS011;20336;-33.424;-70.638;2023-09-12T04:13:28;13.47;;;5.67;;
34060;SDS011;20336;-33.424;-70.638;2023-09-12T04:15:55;10.93;;;5.40;;
34060;SDS011;20336;-33.424;-70.638;2023-09-12T04:18:21;13.77;;;5.40;;
34060;SDS011;20336;-33.424;-70.638;2023-09-12T04:20:48;12.53;;;5.30;;
34060;SDS011;20336;-33.424;-70.638;2023-09-12T04:23:15;14.60;;;4.50;;
34060;SDS011;20336;-33.424;-70.638;2023-09-12T04:25:42;13.17;;;4.90;;
34060;SDS011;20336;-33.424;-70.638;2023-09-12T04:28:09;9.10;;;4.63;;
34060;SDS011;20336;-33.424;-70.638;2023-09-12T04:30:36;8.80;;;4.97;;
34060;SDS011;20336;-33.424;-70.638;2023-09-12T04:33:05;11.27;;;4.27;;
34060;SDS011;20336;-33.424;-70.638;2023-09-12T04:35:35;9.13;;;4.37;;
34060;SDS011;20336;-33.424;-70.638;2023-09-12T04:38:02;9.43;;;4.20;;
34060;SDS011;20336;-33.424;-70.638;2023-09-12T04:40:29;7.97;;;3.80;;
34060;SDS011;20336;-33.424;-70.638;2023-09-12T04:42:56;11.87;;;4.17;;
34060;SDS011;20336;-33.424;-70.638;2023-09-12T04:45:23;7.60;;;2.97;;
34060;SDS011;20336;-33.424;-70.638;2023-09-12T04:47:50;8.40;;;3.33;;
34060;SDS011;20336;-33.424;-70.638;2023-09-12T04:50:17;5.73;;;2.70;;
34060;SDS011;20336;-33.424;-70.638;2023-09-12T04:52:44;8.23;;;2.53;;
34060;SDS011;20336;-33.424;-70.638;2023-09-12T04:55:11;6.97;;;2.67;;
34060;SDS011;20336;-33.424;-70.638;2023-09-12T04:57:38;7.67;;;2.57;;
34060;SDS011;20336;-33.424;-70.638;2023-09-12T05:00:05;7.73;;;2.40;;
34060;SDS011;20336;-33.424;-70.638;2023-09-12T05:02:32;5.83;;;2.37;;
34060;SDS011;20336;-33.424;-70.638;2023-09-12T05:04:59;8.43;;;2.60;;
34060;SDS011;20336;-33.424;-70.638;2023-09-12T05:07:26;7.00;;;2.50;;
34060;SDS011;20336;-33.424;-70.638;2023-09-12T05:09:53;5.77;;;2.53;;
34060;SDS011;20336;-33.424;-70.638;2023-09-12T05:12:20;9.77;;;2.20;;
34060;SDS011;20336;-33.424;-70.638;2023-09-12T05:14:47;7.77;;;2.20;;
34060;SDS011;20336;-33.424;-70.638;2023-09-12T05:17:14;5.87;;;2.57;;
34060;SDS011;20336;-33.424;-70.638;2023-09-12T05:19:41;7.03;;;2.43;;
34060;SDS011;20336;-33.424;-70.638;2023-09-12T05:22:08;4.67;;;2.47;;
34060;SDS011;20336;-33.424;-70.638;2023-09-12T05:24:35;5.60;;;2.27;;
34060;SDS011;20336;-33.424;-70.638;2023-09-12T05:27:03;8.23;;;3.00;;
34060;SDS011;20336;-33.424;-70.638;2023-09-12T05:29:31;7.23;;;2.47;;
34060;SDS011;20336;-33.424;-70.638;2023-09-12T05:31:58;9.17;;;2.37;;
34060;SDS011;20336;-33.424;-70.638;2023-09-12T05:34:25;6.97;;;1.93;;
34060;SDS011;20336;-33.424;-70.638;2023-09-12T05:36:51;7.77;;;2.57;;
34060;SDS011;20336;-33.424;-70.638;2023-09-12T05:39:18;12.77;;;2.47;;
34060;SDS011;20336;-33.424;-70.638;2023-09-12T05:41:45;6.43;;;2.00;;
34060;SDS011;20336;-33.424;-70.638;2023-09-12T05:44:12;7.83;;;2.47;;
34060;SDS011;20336;-33.424;-70.638;2023-09-12T05:46:44;7.00;;;2.00;;
34060;SDS011;20336;-33.424;-70.638;2023-09-12T05:49:12;4.13;;;2.07;;
34060;SDS011;20336;-33.424;-70.638;2023-09-12T05:51:40;9.27;;;2.40;;
34060;SDS011;20336;-33.424;-70.638;2023-09-12T05:54:10;6.83;;;2.10;;
34060;SDS011;20336;-33.424;-70.638;2023-09-12T05:56:41;7.13;;;2.20;;
34060;SDS011;20336;-33.424;-70.638;2023-09-12T05:59:08;5.80;;;1.93;;
34060;SDS011;20336;-33.424;-70.638;2023-09-12T06:01:35;7.00;;;2.07;;
34060;SDS011;20336;-33.424;-70.638;2023-09-12T06:04:02;7.00;;;2.07;;
34060;SDS011;20336;-33.424;-70.638;2023-09-12T06:06:29;5.93;;;2.27;;
34060;SDS011;20336;-33.424;-70.638;2023-09-12T06:08:56;7.00;;;2.20;;
34060;SDS011;20336;-33.424;-70.638;2023-09-12T06:11:23;6.23;;;2.10;;
34060;SDS011;20336;-33.424;-70.638;2023-09-12T06:13:50;5.07;;;2.20;;
34060;SDS011;20336;-33.424;-70.638;2023-09-12T06:16:17;4.20;;;1.70;;
34060;SDS011;20336;-33.424;-70.638;2023-09-12T06:18:44;5.53;;;2.07;;
34060;SDS011;20336;-33.424;-70.638;2023-09-12T06:21:11;10.17;;;2.10;;
34060;SDS011;20336;-33.424;-70.638;2023-09-12T06:23:38;9.63;;;2.93;;
34060;SDS011;20336;-33.424;-70.638;2023-09-12T06:26:05;9.83;;;2.33;;
34060;SDS011;20336;-33.424;-70.638;2023-09-12T06:28:32;7.20;;;2.33;;
34060;SDS011;20336;-33.424;-70.638;2023-09-12T06:30:59;8.30;;;2.67;;
34060;SDS011;20336;-33.424;-70.638;2023-09-12T06:33:26;8.07;;;2.67;;
34060;SDS011;20336;-33.424;-70.638;2023-09-12T06:35:53;7.57;;;2.57;;
34060;SDS011;20336;-33.424;-70.638;2023-09-12T06:38:21;7.63;;;2.37;;
34060;SDS011;20336;-33.424;-70.638;2023-09-12T06:40:49;5.67;;;2.27;;
34060;SDS011;20336;-33.424;-70.638;2023-09-12T06:43:17;5.63;;;2.20;;
34060;SDS011;20336;-33.424;-70.638;2023-09-12T06:45:45;14.37;;;3.20;;
34060;SDS011;20336;-33.424;-70.638;2023-09-12T06:48:12;10.43;;;2.60;;
34060;SDS011;20336;-33.424;-70.638;2023-09-12T06:50:39;9.50;;;2.63;;
34060;SDS011;20336;-33.424;-70.638;2023-09-12T06:53:06;8.77;;;2.43;;
34060;SDS011;20336;-33.424;-70.638;2023-09-12T06:55:33;9.90;;;2.57;;
34060;SDS011;20336;-33.424;-70.638;2023-09-12T06:58:00;8.33;;;2.13;;
34060;SDS011;20336;-33.424;-70.638;2023-09-12T07:00:28;5.93;;;2.67;;
34060;SDS011;20336;-33.424;-70.638;2023-09-12T07:02:56;12.73;;;3.03;;
34060;SDS011;20336;-33.424;-70.638;2023-09-12T07:05:23;6.97;;;2.67;;
34060;SDS011;20336;-33.424;-70.638;2023-09-12T07:07:50;9.00;;;2.87;;
34060;SDS011;20336;-33.424;-70.638;2023-09-12T07:10:17;6.17;;;2.53;;
34060;SDS011;20336;-33.424;-70.638;2023-09-12T07:12:45;14.13;;;3.23;;
34060;SDS011;20336;-33.424;-70.638;2023-09-12T07:15:12;8.40;;;2.60;;
34060;SDS011;20336;-33.424;-70.638;2023-09-12T07:17:39;7.73;;;2.70;;
34060;SDS011;20336;-33.424;-70.638;2023-09-12T07:20:06;8.67;;;3.03;;
34060;SDS011;20336;-33.424;-70.638;2023-09-12T07:22:37;13.03;;;3.00;;
34060;SDS011;20336;-33.424;-70.638;2023-09-12T07:25:07;8.23;;;3.23;;
34060;SDS011;20336;-33.424;-70.638;2023-09-12T07:27:37;9.70;;;2.90;;
34060;SDS011;20336;-33.424;-70.638;2023-09-12T07:30:05;8.43;;;2.67;;
34060;SDS011;20336;-33.424;-70.638;2023-09-12T07:32:32;9.17;;;2.77;;
34060;SDS011;20336;-33.424;-70.638;2023-09-12T07:34:59;7.67;;;2.40;;
34060;SDS011;20336;-33.424;-70.638;2023-09-12T07:37:26;6.43;;;2.37;;
34060;SDS011;20336;-33.424;-70.638;2023-09-12T07:39:53;5.97;;;2.30;;
34060;SDS011;20336;-33.424;-70.638;2023-09-12T07:42:23;8.40;;;2.60;;
34060;SDS011;20336;-33.424;-70.638;2023-09-12T07:44:50;6.83;;;2.30;;
34060;SDS011;20336;-33.424;-70.638;2023-09-12T07:47:18;8.93;;;2.60;;
34060;SDS011;20336;-33.424;-70.638;2023-09-12T07:49:49;7.17;;;2.37;;
34060;SDS011;20336;-33.424;-70.638;2023-09-12T07:52:19;4.60;;;2.20;;
34060;SDS011;20336;-33.424;-70.638;2023-09-12T07:54:46;9.83;;;2.63;;
34060;SDS011;20336;-33.424;-70.638;2023-09-12T07:57:13;7.33;;;2.43;;
34060;SDS011;20336;-33.424;-70.638;2023-09-12T07:59:40;5.17;;;2.53;;
34060;SDS011;20336;-33.424;-70.638;2023-09-12T08:02:07;6.77;;;2.37;;
34060;SDS011;20336;-33.424;-70.638;2023-09-12T08:04:33;5.80;;;2.20;;
34060;SDS011;20336;-33.424;-70.638;2023-09-12T08:07:00;5.50;;;2.20;;
34060;SDS011;20336;-33.424;-70.638;2023-09-12T08:09:48;8.13;;;2.40;;
34060;SDS011;20336;-33.424;-70.638;2023-09-12T08:12:16;10.20;;;2.33;;
34060;SDS011;20336;-33.424;-70.638;2023-09-12T08:14:43;5.53;;;2.40;;
34060;SDS011;20336;-33.424;-70.638;2023-09-12T08:17:11;11.97;;;2.90;;
34060;SDS011;20336;-33.424;-70.638;2023-09-12T08:19:38;7.77;;;2.70;;
34060;SDS011;20336;-33.424;-70.638;2023-09-12T08:22:06;6.10;;;2.13;;
34060;SDS011;20336;-33.424;-70.638;2023-09-12T08:24:33;6.63;;;2.47;;
34060;SDS011;20336;-33.424;-70.638;2023-09-12T08:27:00;4.77;;;1.97;;
34060;SDS011;20336;-33.424;-70.638;2023-09-12T08:29:28;4.40;;;2.00;;
34060;SDS011;20336;-33.424;-70.638;2023-09-12T08:31:56;10.67;;;2.33;;
34060;SDS011;20336;-33.424;-70.638;2023-09-12T08:34:23;5.00;;;2.03;;
34060;SDS011;20336;-33.424;-70.638;2023-09-12T08:36:50;7.70;;;2.40;;
34060;SDS011;20336;-33.424;-70.638;2023-09-12T08:39:18;8.40;;;2.33;;
34060;SDS011;20336;-33.424;-70.638;2023-09-12T08:41:49;9.33;;;2.97;;
34060;SDS011;20336;-33.424;-70.638;2023-09-12T08:44:16;5.00;;;2.30;;
34060;SDS011;20336;-33.424;-70.638;2023-09-12T08:46:44;8.70;;;2.50;;
34060;SDS011;20336;-33.424;-70.638;2023-09-12T08:49:11;5.07;;;1.90;;
34060;SDS011;20336;-33.424;-70.638;2023-09-12T08:51:39;6.57;;;2.27;;
34060;SDS011;20336;-33.424;-70.638;2023-09-12T08:54:06;7.27;;;2.50;;
34060;SDS011;20336;-33.424;-70.638;2023-09-12T08:56:36;7.00;;;2.17;;
34060;SDS011;20336;-33.424;-70.638;2023-09-12T08:59:04;7.03;;;2.23;;
34060;SDS011;20336;-33.424;-70.638;2023-09-12T09:01:32;5.67;;;2.17;;
34060;SDS011;20336;-33.424;-70.638;2023-09-12T09:03:59;4.53;;;2.33;;
34060;SDS011;20336;-33.424;-70.638;2023-09-12T09:06:29;11.83;;;2.87;;
34060;SDS011;20336;-33.424;-70.638;2023-09-12T09:09:06;10.10;;;2.60;;
34060;SDS011;20336;-33.424;-70.638;2023-09-12T09:11:33;6.97;;;2.23;;
34060;SDS011;20336;-33.424;-70.638;2023-09-12T09:14:01;5.80;;;2.30;;
34060;SDS011;20336;-33.424;-70.638;2023-09-12T09:16:28;5.03;;;2.30;;
34060;SDS011;20336;-33.424;-70.638;2023-09-12T09:18:57;6.43;;;2.37;;
34060;SDS011;20336;-33.424;-70.638;2023-09-12T09:21:26;10.03;;;2.80;;
34060;SDS011;20336;-33.424;-70.638;2023-09-12T09:23:55;4.77;;;2.17;;
34060;SDS011;20336;-33.424;-70.638;2023-09-12T09:26:23;8.20;;;2.43;;
34060;SDS011;20336;-33.424;-70.638;2023-09-12T09:31:57;4.93;;;2.50;;
34060;SDS011;20336;-33.424;-70.638;2023-09-12T09:34:24;5.87;;;2.10;;
34060;SDS011;20336;-33.424;-70.638;2023-09-12T09:36:55;6.93;;;2.60;;
34060;SDS011;20336;-33.424;-70.638;2023-09-12T09:39:23;6.63;;;2.40;;
34060;SDS011;20336;-33.424;-70.638;2023-09-12T09:41:51;6.37;;;2.67;;
34060;SDS011;20336;-33.424;-70.638;2023-09-12T09:44:18;5.97;;;2.63;;
34060;SDS011;20336;-33.424;-70.638;2023-09-12T09:46:50;9.77;;;2.73;;
34060;SDS011;20336;-33.424;-70.638;2023-09-12T09:49:19;10.80;;;2.90;;
34060;SDS011;20336;-33.424;-70.638;2023-09-12T09:51:47;9.10;;;3.70;;
34060;SDS011;20336;-33.424;-70.638;2023-09-12T09:54:14;10.60;;;3.53;;
34060;SDS011;20336;-33.424;-70.638;2023-09-12T09:56:47;9.43;;;3.17;;
34060;SDS011;20336;-33.424;-70.638;2023-09-12T09:59:16;9.20;;;2.93;;
34060;SDS011;20336;-33.424;-70.638;2023-09-12T10:01:46;8.07;;;3.17;;
34060;SDS011;20336;-33.424;-70.638;2023-09-12T10:04:15;14.70;;;3.57;;
34060;SDS011;20336;-33.424;-70.638;2023-09-12T10:06:45;9.63;;;3.53;;
34060;SDS011;20336;-33.424;-70.638;2023-09-12T10:09:13;7.57;;;3.40;;
34060;SDS011;20336;-33.424;-70.638;2023-09-12T10:11:42;9.57;;;3.40;;
34060;SDS011;20336;-33.424;-70.638;2023-09-12T10:14:09;9.03;;;3.60;;
34060;SDS011;20336;-33.424;-70.638;2023-09-12T10:16:44;10.70;;;3.63;;
34060;SDS011;20336;-33.424;-70.638;2023-09-12T10:19:13;9.93;;;3.63;;
34060;SDS011;20336;-33.424;-70.638;2023-09-12T10:21:52;10.73;;;3.90;;
34060;SDS011;20336;-33.424;-70.638;2023-09-12T10:24:21;10.80;;;4.10;;
34060;SDS011;20336;-33.424;-70.638;2023-09-12T10:26:52;16.20;;;4.00;;
34060;SDS011;20336;-33.424;-70.638;2023-09-12T10:29:20;10.07;;;3.53;;
34060;SDS011;20336;-33.424;-70.638;2023-09-12T10:31:48;10.53;;;3.57;;
34060;SDS011;20336;-33.424;-70.638;2023-09-12T10:34:15;14.20;;;4.10;;
34060;SDS011;20336;-33.424;-70.638;2023-09-12T10:36:43;9.40;;;3.43;;
34060;SDS011;20336;-33.424;-70.638;2023-09-12T10:39:10;11.20;;;3.73;;
34060;SDS011;20336;-33.424;-70.638;2023-09-12T10:41:38;8.87;;;4.03;;
34060;SDS011;20336;-33.424;-70.638;2023-09-12T10:44:15;15.90;;;4.30;;
34060;SDS011;20336;-33.424;-70.638;2023-09-12T10:46:43;11.50;;;4.20;;
34060;SDS011;20336;-33.424;-70.638;2023-09-12T10:49:11;9.27;;;3.50;;
34060;SDS011;20336;-33.424;-70.638;2023-09-12T10:51:38;9.90;;;3.97;;
34060;SDS011;20336;-33.424;-70.638;2023-09-12T10:54:06;10.73;;;3.63;;
34060;SDS011;20336;-33.424;-70.638;2023-09-12T10:56:36;6.63;;;3.50;;
34060;SDS011;20336;-33.424;-70.638;2023-09-12T11:01:30;7.43;;;4.53;;
34060;SDS011;20336;-33.424;-70.638;2023-09-12T11:03:57;10.60;;;5.07;;
34060;SDS011;20336;-33.424;-70.638;2023-09-12T11:06:30;11.70;;;4.50;;
34060;SDS011;20336;-33.424;-70.638;2023-09-12T11:09:17;8.27;;;4.33;;
34060;SDS011;20336;-33.424;-70.638;2023-09-12T11:11:45;16.67;;;3.93;;
34060;SDS011;20336;-33.424;-70.638;2023-09-12T11:14:13;10.77;;;4.30;;
34060;SDS011;20336;-33.424;-70.638;2023-09-12T11:17:29;13.47;;;4.80;;
34060;SDS011;20336;-33.424;-70.638;2023-09-12T11:19:31;14.47;;;4.10;;
34060;SDS011;20336;-33.424;-70.638;2023-09-12T11:22:22;12.80;;;4.60;;
34060;SDS011;20336;-33.424;-70.638;2023-09-12T11:24:49;17.37;;;4.90;;
34060;SDS011;20336;-33.424;-70.638;2023-09-12T11:27:17;12.60;;;4.20;;
34060;SDS011;20336;-33.424;-70.638;2023-09-12T11:29:44;13.57;;;4.57;;
34060;SDS011;20336;-33.424;-70.638;2023-09-12T11:32:24;15.80;;;4.50;;
34060;SDS011;20336;-33.424;-70.638;2023-09-12T11:34:52;15.50;;;4.77;;
34060;SDS011;20336;-33.424;-70.638;2023-09-12T11:37:23;11.97;;;4.10;;
34060;SDS011;20336;-33.424;-70.638;2023-09-12T11:39:50;12.57;;;4.73;;
34060;SDS011;20336;-33.424;-70.638;2023-09-12T11:42:18;11.07;;;4.23;;
34060;SDS011;20336;-33.424;-70.638;2023-09-12T11:44:46;15.70;;;4.43;;
34060;SDS011;20336;-33.424;-70.638;2023-09-12T11:47:14;12.33;;;4.47;;
34060;SDS011;20336;-33.424;-70.638;2023-09-12T11:49:41;11.63;;;4.30;;
34060;SDS011;20336;-33.424;-70.638;2023-09-12T11:52:15;14.00;;;4.23;;
34060;SDS011;20336;-33.424;-70.638;2023-09-12T11:54:42;15.20;;;4.63;;
34060;SDS011;20336;-33.424;-70.638;2023-09-12T11:57:13;15.30;;;4.30;;
34060;SDS011;20336;-33.424;-70.638;2023-09-12T11:59:41;10.23;;;3.30;;
34060;SDS011;20336;-33.424;-70.638;2023-09-12T12:02:13;9.07;;;3.50;;
34060;SDS011;20336;-33.424;-70.638;2023-09-12T12:04:40;10.30;;;3.77;;
34060;SDS011;20336;-33.424;-70.638;2023-09-12T12:07:08;8.27;;;3.30;;
34060;SDS011;20336;-33.424;-70.638;2023-09-12T12:09:35;12.63;;;3.70;;
34060;SDS011;20336;-33.424;-70.638;2023-09-12T12:12:12;13.23;;;3.50;;
34060;SDS011;20336;-33.424;-70.638;2023-09-12T12:14:40;12.83;;;3.23;;
34060;SDS011;20336;-33.424;-70.638;2023-09-12T12:17:08;15.33;;;3.67;;
34060;SDS011;20336;-33.424;-70.638;2023-09-12T12:19:35;7.70;;;3.60;;
34060;SDS011;20336;-33.424;-70.638;2023-09-12T12:22:03;6.63;;;3.13;;
34060;SDS011;20336;-33.424;-70.638;2023-09-12T12:24:37;8.23;;;3.70;;
34060;SDS011;20336;-33.424;-70.638;2023-09-12T12:27:04;14.57;;;3.50;;
34060;SDS011;20336;-33.424;-70.638;2023-09-12T12:29:33;15.43;;;3.77;;
34060;SDS011;20336;-33.424;-70.638;2023-09-12T12:32:03;12.03;;;3.90;;
34060;SDS011;20336;-33.424;-70.638;2023-09-12T12:34:30;14.17;;;4.03;;
34060;SDS011;20336;-33.424;-70.638;2023-09-12T12:36:57;15.23;;;4.13;;
34060;SDS011;20336;-33.424;-70.638;2023-09-12T12:39:24;11.93;;;3.90;;
34060;SDS011;20336;-33.424;-70.638;2023-09-12T12:41:52;14.57;;;4.10;;
34060;SDS011;20336;-33.424;-70.638;2023-09-12T12:44:19;9.03;;;3.87;;
34060;SDS011;20336;-33.424;-70.638;2023-09-12T12:49:18;16.10;;;4.37;;
34060;SDS011;20336;-33.424;-70.638;2023-09-12T12:51:45;14.40;;;4.30;;
34060;SDS011;20336;-33.424;-70.638;2023-09-12T12:54:13;17.40;;;4.33;;
34060;SDS011;20336;-33.424;-70.638;2023-09-12T12:56:40;16.10;;;4.40;;
34060;SDS011;20336;-33.424;-70.638;2023-09-12T12:59:07;10.67;;;4.17;;
34060;SDS011;20336;-33.424;-70.638;2023-09-12T13:01:34;17.63;;;4.33;;
34060;SDS011;20336;-33.424;-70.638;2023-09-12T13:04:04;15.57;;;4.40;;
34060;SDS011;20336;-33.424;-70.638;2023-09-12T13:06:31;9.90;;;3.57;;
34060;SDS011;20336;-33.424;-70.638;2023-09-12T13:09:01;11.50;;;4.30;;
34060;SDS011;20336;-33.424;-70.638;2023-09-12T13:11:31;15.10;;;3.80;;
34060;SDS011;20336;-33.424;-70.638;2023-09-12T13:14:01;10.60;;;3.57;;
34060;SDS011;20336;-33.424;-70.638;2023-09-12T13:16:34;10.47;;;3.77;;
34060;SDS011;20336;-33.424;-70.638;2023-09-12T13:19:01;13.40;;;3.77;;
34060;SDS011;20336;-33.424;-70.638;2023-09-12T13:21:28;12.80;;;4.30;;
34060;SDS011;20336;-33.424;-70.638;2023-09-12T13:23:57;10.17;;;4.00;;
34060;SDS011;20336;-33.424;-70.638;2023-09-12T13:26:24;12.50;;;4.03;;
34060;SDS011;20336;-33.424;-70.638;2023-09-12T13:28:51;12.10;;;3.50;;
34060;SDS011;20336;-33.424;-70.638;2023-09-12T13:31:18;7.17;;;3.17;;
34060;SDS011;20336;-33.424;-70.638;2023-09-12T13:33:45;14.63;;;4.03;;
34060;SDS011;20336;-33.424;-70.638;2023-09-12T13:36:12;10.47;;;3.80;;
34060;SDS011;20336;-33.424;-70.638;2023-09-12T13:38:39;9.67;;;4.27;;
34060;SDS011;20336;-33.424;-70.638;2023-09-12T13:41:06;14.73;;;3.57;;
34060;SDS011;20336;-33.424;-70.638;2023-09-12T13:43:33;10.50;;;4.20;;
34060;SDS011;20336;-33.424;-70.638;2023-09-12T13:46:00;11.87;;;3.73;;
34060;SDS011;20336;-33.424;-70.638;2023-09-12T13:48:27;14.93;;;3.97;;
34060;SDS011;20336;-33.424;-70.638;2023-09-12T13:50:55;15.03;;;4.00;;
34060;SDS011;20336;-33.424;-70.638;2023-09-12T13:53:22;10.30;;;3.90;;
34060;SDS011;20336;-33.424;-70.638;2023-09-12T13:55:49;12.88;;;4.35;;
34060;SDS011;20336;-33.424;-70.638;2023-09-12T13:58:16;18.50;;;4.90;;
34060;SDS011;20336;-33.424;-70.638;2023-09-12T14:00:43;12.80;;;4.00;;
34060;SDS011;20336;-33.424;-70.638;2023-09-12T14:03:10;11.77;;;4.18;;
34060;SDS011;20336;-33.424;-70.638;2023-09-12T14:05:37;13.32;;;4.50;;
34060;SDS011;20336;-33.424;-70.638;2023-09-12T14:08:04;22.15;;;7.18;;
34060;SDS011;20336;-33.424;-70.638;2023-09-12T14:10:31;18.58;;;5.25;;
34060;SDS011;20336;-33.424;-70.638;2023-09-12T14:12:58;19.50;;;8.30;;
34060;SDS011;20336;-33.424;-70.638;2023-09-12T14:15:25;24.38;;;8.55;;
34060;SDS011;20336;-33.424;-70.638;2023-09-12T14:17:52;18.05;;;6.63;;
34060;SDS011;20336;-33.424;-70.638;2023-09-12T14:20:19;13.50;;;5.50;;